createdAt,value
2023-04-25T00:02:05.490Z,85.04
2023-04-25T00:04:53.422Z,84.39
2023-04-25T00:07:43.017Z,84.00
2023-04-25T00:10:30.627Z,84.16
2023-04-25T00:13:18.659Z,83.50
2023-04-25T00:16:07.728Z,81.87
2023-04-25T00:18:56.721Z,82.81
2023-04-25T00:21:46.399Z,82.19
2023-04-25T00:24:36.455Z,82.48
2023-04-25T00:27:23.828Z,82.49
2023-04-25T00:30:12.689Z,82.80
2023-04-25T00:33:00.215Z,83.49
2023-04-25T00:35:48.903Z,81.68
2023-04-25T00:38:36.829Z,81.04
2023-04-25T00:41:26.330Z,82.44
2023-04-25T00:44:18.059Z,81.76
2023-04-25T00:47:06.404Z,82.41
2023-04-25T00:49:54.589Z,82.52
2023-04-25T00:52:45.961Z,82.61
2023-04-25T00:55:35.677Z,82.84
2023-04-25T00:58:23.659Z,82.55
2023-04-25T01:01:12.117Z,83.98
2023-04-25T01:04:09.233Z,83.63
2023-04-25T01:06:57.072Z,83.54
2023-04-25T01:09:46.914Z,83.61
2023-04-25T01:12:34.756Z,83.30
2023-04-25T01:15:22.853Z,82.79
2023-04-25T01:18:10.842Z,82.53
2023-04-25T01:21:08.507Z,83.31
2023-04-25T01:23:56.151Z,82.71
2023-04-25T01:26:50.960Z,83.35
2023-04-25T01:29:41.963Z,81.92
2023-04-25T01:32:29.595Z,80.41
2023-04-25T01:35:16.777Z,81.17
2023-04-25T01:38:05.749Z,80.26
2023-04-25T01:40:54.683Z,81.80
2023-04-25T01:43:42.736Z,81.66
2023-04-25T01:46:31.941Z,80.96
2023-04-25T01:49:19.438Z,80.50
2023-04-25T01:52:08.765Z,79.88
2023-04-25T01:54:58.463Z,80.91
2023-04-25T01:57:46.018Z,79.75
2023-04-25T02:00:33.827Z,79.98
2023-04-25T02:03:21.500Z,80.25
2023-04-25T02:06:09.381Z,80.20
2023-04-25T02:08:59.278Z,80.13
2023-04-25T02:11:48.195Z,77.65
2023-04-25T02:14:36.241Z,77.78
2023-04-25T02:17:23.933Z,77.79
2023-04-25T02:20:12.160Z,77.00
2023-04-25T02:22:59.987Z,78.04
2023-04-25T02:25:47.867Z,77.53
2023-04-25T02:28:36.850Z,75.89
2023-04-25T02:31:24.638Z,78.94
2023-04-25T02:34:11.861Z,82.21
2023-04-25T02:37:01.737Z,84.68
2023-04-25T02:39:54.930Z,86.38
2023-04-25T02:42:42.867Z,85.02
2023-04-25T02:45:31.835Z,84.57
2023-04-25T02:48:21.634Z,83.56
2023-04-25T02:51:09.494Z,81.68
2023-04-25T02:53:57.324Z,80.59
2023-04-25T02:56:44.805Z,82.78
2023-04-25T02:59:31.968Z,81.27
2023-04-25T03:02:21.576Z,80.12
2023-04-25T03:05:09.892Z,79.34
2023-04-25T03:07:57.532Z,76.66
2023-04-25T03:10:47.603Z,75.06
2023-04-25T03:13:35.929Z,75.61
2023-04-25T03:16:23.468Z,73.93
2023-04-25T03:19:12.371Z,75.94
2023-04-25T03:22:04.034Z,75.60
2023-04-25T03:24:51.308Z,77.71
2023-04-25T03:27:38.806Z,78.45
2023-04-25T03:30:26.310Z,78.48
2023-04-25T03:33:13.628Z,79.06
2023-04-25T03:36:03.240Z,79.32
2023-04-25T03:38:51.136Z,80.64
2023-04-25T03:41:41.207Z,79.83
2023-04-25T03:44:28.426Z,80.39
2023-04-25T03:47:16.288Z,80.25
2023-04-25T03:50:03.981Z,80.57
2023-04-25T03:52:52.899Z,81.20
2023-04-25T03:55:43.416Z,80.21
2023-04-25T03:58:34.092Z,79.77
2023-04-25T04:01:22.171Z,81.62
2023-04-25T04:04:09.903Z,80.54
2023-04-25T04:06:57.318Z,81.27
2023-04-25T04:09:46.070Z,81.84
2023-04-25T04:12:33.566Z,81.78
2023-04-25T04:15:23.377Z,80.86
2023-04-25T04:18:11.044Z,80.88
2023-04-25T04:20:59.434Z,80.86
2023-04-25T04:23:47.631Z,80.76
2023-04-25T04:26:36.171Z,80.33
2023-04-25T04:29:23.911Z,80.60
2023-04-25T04:32:11.168Z,80.18
2023-04-25T04:34:59.134Z,80.08
2023-04-25T04:37:47.590Z,81.05
2023-04-25T04:40:35.969Z,81.56
2023-04-25T04:43:25.209Z,81.02
2023-04-25T04:46:13.858Z,80.90
2023-04-25T04:49:01.634Z,80.95
2023-04-25T04:51:54.420Z,82.39
2023-04-25T04:54:41.794Z,80.72
2023-04-25T04:57:29.692Z,80.97
2023-04-25T05:00:21.869Z,80.70
2023-04-25T05:03:12.638Z,80.78
2023-04-25T05:06:01.025Z,79.41
2023-04-25T05:08:48.819Z,79.92
2023-04-25T05:11:36.457Z,81.43
2023-04-25T05:14:26.418Z,81.20
2023-04-25T05:17:15.740Z,81.63
2023-04-25T05:20:03.858Z,81.33
2023-04-25T05:22:51.782Z,81.96
2023-04-25T05:26:32.547Z,78.81
2023-04-25T05:29:53.446Z,78.99
2023-04-25T05:32:53.294Z,79.15
2023-04-25T05:35:51.358Z,77.38
2023-04-25T05:45:26.350Z,78.27
2023-04-25T05:48:17.204Z,77.48
2023-04-25T05:51:04.752Z,76.58
2023-04-25T05:53:52.484Z,76.06
2023-04-25T05:56:41.247Z,75.84
2023-04-25T05:59:29.276Z,73.46
2023-04-25T06:02:17.479Z,73.53
2023-04-25T06:05:07.219Z,72.62
2023-04-25T06:07:54.957Z,73.61
2023-04-25T06:10:42.676Z,70.70
2023-04-25T06:13:32.958Z,72.42
2023-04-25T06:16:20.831Z,71.23
2023-04-25T06:19:12.113Z,70.26
2023-04-25T06:22:01.598Z,71.31
2023-04-25T06:24:49.163Z,72.43
2023-04-25T06:27:39.276Z,74.92
2023-04-25T06:30:27.007Z,75.78
2023-04-25T06:33:14.485Z,73.38
2023-04-25T06:36:02.370Z,73.47
2023-04-25T06:38:51.963Z,71.81
2023-04-25T06:41:39.644Z,70.20
2023-04-25T06:44:30.580Z,68.92
2023-04-25T06:47:19.047Z,67.17
2023-04-25T06:50:10.644Z,67.47
2023-04-25T06:53:02.582Z,67.51
2023-04-25T06:55:51.499Z,68.80
2023-04-25T06:58:39.062Z,67.94
2023-04-25T07:01:27.700Z,68.16
2023-04-25T07:04:16.377Z,67.49
2023-04-25T07:07:06.814Z,67.69
2023-04-25T07:09:54.447Z,66.67
2023-04-25T07:12:44.305Z,65.65
2023-04-25T07:15:31.757Z,64.59
2023-04-25T07:18:19.042Z,65.66
2023-04-25T07:21:08.986Z,64.95
2023-04-25T07:23:56.865Z,65.31
2023-04-25T07:26:48.117Z,63.82
2023-04-25T07:29:38.486Z,64.49
2023-04-25T07:32:28.019Z,63.32
2023-04-25T07:35:16.629Z,63.45
2023-04-25T07:38:04.776Z,62.97
2023-04-25T07:40:55.275Z,61.79
2023-04-25T07:43:43.366Z,63.20
2023-04-25T07:46:36.000Z,62.02
2023-04-25T07:49:23.712Z,61.16
2023-04-25T07:52:15.565Z,61.57
2023-04-25T07:55:06.879Z,62.84
2023-04-25T07:57:55.627Z,63.73
2023-04-25T08:00:44.552Z,64.69
2023-04-25T08:03:36.805Z,65.12
2023-04-25T08:06:30.883Z,64.49
2023-04-25T08:09:23.163Z,62.36
2023-04-25T08:12:14.241Z,61.89
2023-04-25T08:15:02.995Z,61.60
2023-04-25T08:17:50.900Z,61.48
2023-04-25T08:20:41.605Z,55.62
2023-04-25T08:23:29.351Z,56.04
2023-04-25T08:26:16.864Z,55.19
2023-04-25T08:29:06.092Z,52.68
2023-04-25T08:31:55.353Z,53.37
2023-04-25T08:34:45.214Z,54.94
2023-04-25T08:37:35.585Z,57.12
2023-04-25T08:40:27.249Z,62.30
2023-04-25T08:43:16.302Z,61.42
2023-04-25T08:46:05.221Z,61.62
2023-04-25T08:49:02.056Z,61.50
2023-04-25T08:51:52.724Z,61.25
2023-04-25T08:54:45.671Z,60.18
2023-04-25T08:57:38.390Z,58.59
2023-04-25T09:00:27.176Z,57.45
2023-04-25T09:03:23.638Z,57.33
2023-04-25T09:06:12.435Z,53.06
2023-04-25T09:09:08.283Z,52.35
2023-04-25T09:12:06.388Z,51.36
2023-04-25T09:15:06.992Z,52.60
2023-04-25T09:17:57.263Z,53.19
2023-04-25T09:21:00.620Z,54.73
2023-04-25T09:23:53.230Z,55.47
2023-04-25T09:26:40.866Z,55.72
2023-04-25T09:29:34.479Z,55.09
2023-04-25T09:32:24.979Z,54.79
2023-04-25T09:35:25.745Z,55.62
2023-04-25T09:38:19.361Z,53.79
2023-04-25T09:41:15.358Z,52.82
2023-04-25T09:44:05.454Z,51.81
2023-04-25T09:46:58.342Z,52.09
2023-04-25T09:49:46.137Z,52.18
2023-04-25T09:52:37.170Z,51.77
2023-04-25T09:55:25.786Z,53.35
2023-04-25T09:58:14.953Z,54.74
2023-04-25T10:01:04.274Z,53.13
2023-04-25T10:03:59.331Z,53.10
2023-04-25T10:06:57.410Z,57.06
2023-04-25T10:09:48.904Z,60.13
2023-04-25T10:12:40.878Z,66.25
2023-04-25T10:15:31.873Z,66.84
2023-04-25T10:18:24.482Z,66.46
2023-04-25T10:21:15.239Z,66.27
2023-04-25T10:24:13.729Z,65.97
2023-04-25T10:27:02.832Z,64.77
2023-04-25T10:30:08.577Z,62.98
2023-04-25T10:32:56.970Z,60.49
2023-04-25T10:35:47.083Z,58.15
2023-04-25T10:38:39.894Z,57.71
2023-04-25T10:41:34.137Z,57.58
2023-04-25T10:44:22.489Z,54.02
2023-04-25T10:47:11.084Z,52.87
2023-04-25T10:50:07.270Z,61.41
2023-04-25T10:52:54.970Z,79.13
2023-04-25T10:55:56.166Z,79.25
2023-04-25T10:58:46.270Z,76.67
2023-04-25T11:01:45.385Z,77.16
2023-04-25T11:04:37.075Z,76.85
2023-04-25T11:07:36.199Z,76.23
2023-04-25T11:10:27.495Z,74.30
2023-04-25T11:13:16.667Z,72.38
2023-04-25T11:19:05.821Z,69.93
2023-04-25T11:21:57.472Z,67.44
2023-04-25T11:24:48.892Z,63.29
2023-04-25T11:27:52.917Z,59.54
2023-04-25T11:30:50.231Z,57.94
2023-04-25T11:33:38.573Z,56.61
2023-04-25T11:36:28.866Z,57.61
2023-04-25T11:39:17.828Z,58.01
2023-04-25T11:45:19.286Z,55.85
2023-04-25T11:47:39.623Z,56.80
2023-04-25T11:48:09.944Z,57.06
2023-04-25T11:51:01.557Z,55.97
2023-04-25T11:53:49.720Z,53.75
2023-04-25T11:56:38.756Z,54.01
2023-04-25T11:59:27.217Z,51.94
2023-04-25T12:02:26.717Z,50.07
2023-04-25T12:05:31.229Z,49.68
2023-04-25T12:08:24.296Z,49.79
2023-04-25T12:11:22.883Z,48.58
2023-04-25T12:14:11.846Z,47.30
2023-04-25T12:17:00.897Z,47.01
2023-04-25T12:19:48.823Z,50.13
2023-04-25T12:22:38.495Z,50.65
2023-04-25T12:25:42.339Z,50.04
2023-04-25T12:28:34.273Z,49.94
2023-04-25T12:31:23.852Z,50.95
2023-04-25T12:34:11.276Z,48.64
2023-04-25T12:37:09.546Z,47.47
2023-04-25T12:39:58.882Z,48.81
2023-04-25T12:42:48.132Z,49.08
2023-04-25T12:45:37.164Z,51.23
2023-04-25T12:48:26.224Z,50.23
2023-04-25T12:51:14.235Z,48.17
2023-04-25T12:54:06.129Z,49.43
2023-04-25T12:56:56.080Z,51.90
2023-04-25T12:59:46.088Z,51.19
2023-04-25T13:02:34.174Z,51.85
2023-04-25T13:05:23.172Z,53.25
2023-04-25T13:08:15.271Z,52.34
2023-04-25T13:11:02.968Z,52.05
2023-04-25T13:13:52.376Z,50.15
2023-04-25T13:16:44.903Z,49.90
2023-04-25T13:19:37.162Z,50.55
2023-04-25T13:22:26.198Z,50.70
2023-04-25T13:25:17.538Z,50.21
2023-04-25T13:28:06.176Z,51.32
2023-04-25T13:30:56.299Z,50.41
2023-04-25T13:33:45.089Z,50.80
2023-04-25T13:36:35.142Z,49.59
2023-04-25T13:39:30.072Z,47.53
2023-04-25T13:42:19.231Z,46.79
2023-04-25T13:45:08.438Z,47.00
2023-04-25T13:47:57.684Z,47.63
2023-04-25T13:50:46.553Z,48.62
2023-04-25T13:53:37.561Z,51.18
2023-04-25T13:56:25.328Z,51.16
2023-04-25T13:59:13.674Z,50.38
2023-04-25T14:02:03.031Z,45.10
2023-04-25T14:04:54.680Z,46.74
2023-04-25T14:07:43.741Z,49.26
2023-04-25T14:10:31.786Z,55.39
2023-04-25T14:13:19.593Z,62.38
2023-04-25T14:16:10.285Z,72.70
2023-04-25T14:19:01.199Z,73.11
2023-04-25T14:21:51.337Z,72.91
2023-04-25T14:24:46.001Z,72.17
2023-04-25T14:27:33.869Z,68.75
2023-04-25T14:30:22.733Z,66.96
2023-04-25T14:33:11.278Z,65.54
2023-04-25T14:36:00.868Z,63.45
2023-04-25T14:38:49.895Z,61.88
2023-04-25T14:41:37.462Z,61.33
2023-04-25T14:47:45.295Z,58.92
2023-04-25T14:54:35.605Z,57.31
2023-04-25T14:57:25.823Z,57.19
2023-04-25T15:00:29.859Z,57.28
2023-04-25T15:03:20.216Z,57.78
2023-04-25T15:06:08.614Z,58.13
2023-04-25T15:08:56.635Z,57.71
2023-04-25T15:11:46.845Z,57.75
2023-04-25T15:14:35.102Z,57.12
2023-04-25T15:17:23.154Z,56.98
2023-04-25T15:20:12.952Z,56.27
2023-04-25T15:23:04.527Z,56.43
2023-04-25T15:25:54.061Z,54.83
2023-04-25T15:28:43.755Z,55.96
2023-04-25T15:31:32.109Z,55.31
2023-04-25T15:34:22.631Z,55.04
2023-04-25T15:37:12.232Z,52.20
2023-04-25T15:40:09.769Z,51.24
2023-04-25T15:43:01.338Z,52.54
2023-04-25T15:45:50.303Z,51.37
2023-04-25T15:48:38.374Z,47.78
2023-04-25T15:51:28.220Z,49.25
2023-04-25T15:54:16.627Z,47.46
2023-04-25T15:57:04.099Z,46.33
2023-04-25T15:59:52.005Z,43.56
2023-04-25T16:02:46.135Z,44.26
2023-04-25T16:05:36.304Z,45.43
2023-04-25T16:08:23.851Z,44.89
2023-04-25T16:11:15.866Z,48.43
2023-04-25T16:14:03.218Z,48.05
2023-04-25T16:16:51.319Z,48.99
2023-04-25T16:19:41.324Z,51.36
2023-04-25T16:22:29.905Z,50.49
2023-04-25T16:25:17.881Z,47.84
2023-04-25T16:28:07.463Z,47.27
2023-04-25T16:30:55.040Z,45.16
2023-04-25T16:33:44.277Z,45.33
2023-04-25T16:36:39.677Z,45.96
2023-04-25T16:39:28.189Z,46.80
2023-04-25T16:42:16.172Z,51.10
2023-04-25T16:45:05.198Z,53.23
2023-04-25T16:47:52.754Z,55.12
2023-04-25T16:50:41.562Z,56.36
2023-04-25T16:53:31.878Z,56.10
2023-04-25T16:56:20.397Z,57.17
2023-04-25T16:59:09.891Z,56.77
2023-04-25T17:01:59.317Z,54.64
2023-04-25T17:04:50.117Z,53.46
2023-04-25T17:07:38.121Z,54.61
2023-04-25T17:10:28.131Z,54.86
2023-04-25T17:13:31.029Z,54.41
2023-04-25T17:16:23.265Z,55.79
2023-04-25T17:19:11.186Z,57.25
2023-04-25T17:22:02.138Z,58.54
2023-04-25T17:24:50.013Z,60.11
2023-04-25T17:27:38.874Z,60.32
2023-04-25T17:30:27.303Z,61.65
2023-04-25T17:33:17.295Z,60.11
2023-04-25T17:36:05.389Z,59.00
2023-04-25T17:38:59.622Z,57.58
2023-04-25T17:41:48.688Z,56.45
2023-04-25T17:44:38.253Z,55.58
2023-04-25T17:47:31.799Z,54.37
2023-04-25T17:50:19.611Z,54.32
2023-04-25T17:53:07.099Z,56.14
2023-04-25T17:55:54.754Z,57.37
2023-04-25T17:58:45.775Z,58.15
2023-04-25T18:01:35.012Z,60.94
2023-04-25T18:04:22.699Z,62.60
2023-04-25T18:07:12.748Z,64.28
2023-04-25T18:10:00.795Z,66.11
2023-04-25T18:12:51.521Z,66.67
2023-04-25T18:15:39.022Z,65.75
2023-04-25T18:18:33.675Z,65.59
2023-04-25T18:21:27.543Z,65.49
2023-04-25T18:24:18.662Z,64.14
2023-04-25T18:27:08.462Z,64.78
2023-04-25T18:29:56.224Z,65.27
2023-04-25T18:32:44.047Z,65.85
2023-04-25T18:35:33.092Z,66.03
2023-04-25T18:38:34.775Z,66.10
2023-04-25T18:44:16.838Z,65.99
2023-04-25T18:47:23.682Z,67.29
2023-04-25T18:50:23.346Z,67.88
2023-04-25T18:53:13.220Z,67.73
2023-04-25T18:56:02.441Z,67.24
2023-04-25T18:58:54.128Z,68.93
2023-04-25T19:01:44.154Z,69.39
2023-04-25T19:04:34.909Z,69.67
2023-04-25T19:07:23.655Z,70.73
2023-04-25T19:10:13.070Z,72.25
2023-04-25T19:13:01.804Z,73.68
2023-04-25T19:15:53.035Z,74.99
2023-04-25T19:18:41.830Z,74.16
2023-04-25T19:21:29.747Z,76.05
2023-04-25T19:24:22.761Z,75.73
2023-04-25T19:27:11.749Z,75.26
2023-04-25T19:30:08.537Z,75.04
2023-04-25T19:32:58.028Z,74.59
2023-04-25T19:35:46.084Z,75.19
2023-04-25T19:38:36.894Z,73.89
2023-04-25T19:41:27.912Z,73.83
2023-04-25T19:44:18.966Z,73.98
2023-04-25T19:47:16.914Z,74.15
2023-04-25T19:50:07.681Z,73.95
2023-04-25T19:52:58.914Z,73.30
2023-04-25T19:55:47.963Z,72.96
2023-04-25T19:58:38.537Z,72.49
2023-04-25T20:01:27.788Z,72.66
2023-04-25T20:04:25.975Z,70.78
2023-04-25T20:07:14.575Z,70.27
2023-04-25T20:10:02.428Z,69.85
2023-04-25T20:12:52.092Z,69.98
2023-04-25T20:15:44.145Z,69.14
2023-04-25T20:18:50.606Z,69.43
2023-04-25T20:21:46.120Z,70.44
2023-04-25T20:24:33.950Z,69.23
2023-04-25T20:27:21.979Z,69.21
2023-04-25T20:30:12.241Z,69.53
2023-04-25T20:33:01.845Z,68.50
2023-04-25T20:35:51.041Z,69.63
2023-04-25T20:38:43.766Z,69.64
2023-04-25T20:41:33.848Z,70.05
2023-04-25T20:44:23.793Z,69.64
2023-04-25T20:47:11.282Z,68.30
2023-04-25T20:50:00.393Z,68.86
2023-04-25T20:52:51.190Z,68.83
2023-04-25T20:55:42.467Z,69.16
2023-04-25T20:58:31.302Z,68.72
2023-04-25T21:01:21.332Z,68.19
2023-04-25T21:04:09.461Z,68.00
2023-04-25T21:06:57.467Z,68.06
2023-04-25T21:09:51.816Z,68.88
2023-04-25T21:12:41.930Z,69.66
2023-04-25T21:15:30.294Z,68.94
2023-04-25T21:18:18.099Z,70.13
2023-04-25T21:21:06.889Z,69.34
2023-04-25T21:24:02.295Z,69.39
2023-04-25T21:27:01.694Z,70.34
2023-04-25T21:29:53.334Z,70.36
2023-04-25T21:32:52.615Z,69.58
2023-04-25T21:35:53.638Z,69.01
2023-04-25T21:38:41.525Z,69.87
2023-04-25T21:41:29.138Z,69.39
2023-04-25T21:44:18.886Z,68.41
2023-04-25T21:47:07.319Z,68.35
2023-04-25T21:49:59.396Z,67.75
2023-04-25T21:52:51.368Z,68.33
2023-04-25T21:55:39.863Z,70.14
2023-04-25T21:58:28.884Z,70.96
2023-04-25T22:01:19.890Z,72.43
2023-04-25T22:04:07.819Z,74.42
2023-04-25T22:06:55.337Z,74.49
2023-04-25T22:09:53.765Z,75.80
2023-04-25T22:12:45.058Z,74.98
2023-04-25T22:15:32.765Z,73.94
2023-04-25T22:18:22.942Z,74.27
2023-04-25T22:21:10.604Z,74.28
2023-04-25T22:24:00.338Z,75.17
2023-04-25T22:26:51.841Z,75.12
2023-04-25T22:29:41.806Z,75.77
2023-04-25T22:32:29.595Z,76.21
2023-04-25T22:35:19.634Z,76.36
2023-04-25T22:38:07.187Z,76.89
2023-04-25T22:40:56.337Z,77.22
2023-04-25T22:43:44.666Z,76.59
2023-04-25T22:46:32.795Z,76.83
2023-04-25T22:49:20.357Z,76.87
2023-04-25T22:52:12.238Z,75.68
2023-04-25T22:55:04.610Z,76.71
2023-04-25T22:57:52.809Z,76.14
2023-04-25T23:00:43.854Z,76.70
2023-04-25T23:03:33.070Z,77.11
2023-04-25T23:06:20.920Z,75.79
2023-04-25T23:09:14.798Z,76.64
2023-04-25T23:12:02.601Z,76.06
2023-04-25T23:14:53.856Z,76.90
2023-04-25T23:17:43.585Z,77.18
2023-04-25T23:20:34.336Z,76.90
2023-04-25T23:23:22.362Z,76.60
2023-04-25T23:26:12.360Z,76.43
2023-04-25T23:28:59.740Z,76.24
2023-04-25T23:31:47.490Z,76.77
2023-04-25T23:34:36.038Z,75.84
2023-04-25T23:37:23.889Z,76.54
2023-04-25T23:40:12.796Z,77.08
2023-04-25T23:43:03.573Z,75.90
2023-04-25T23:45:51.467Z,75.99
2023-04-25T23:48:38.756Z,76.49
2023-04-25T23:51:29.188Z,77.02
2023-04-25T23:54:19.222Z,76.71
2023-04-25T23:57:06.673Z,76.12
2023-04-25T23:59:56.859Z,76.67
